createdAt,value
2019-04-21T00:01:00.366Z,100555.80
2019-04-21T00:03:34.519Z,100553.23
2019-04-21T00:06:18.409Z,100553.23
2019-04-21T00:08:50.545Z,100555.92
2019-04-21T00:11:26.343Z,100556.95
2019-04-21T00:13:46.985Z,100556.95
2019-04-21T00:16:09.225Z,100557.88
2019-04-21T00:19:18.114Z,100555.77
2019-04-21T00:21:49.226Z,100555.77
2019-04-21T00:24:28.952Z,100551.16
2019-04-21T00:27:05.554Z,100551.16
2019-04-21T00:32:06.803Z,100555.63
2019-04-21T00:34:21.738Z,100552.20
2019-04-21T00:37:03.034Z,100561.44
2019-04-21T00:42:16.782Z,100556.25
2019-04-21T00:44:38.061Z,100552.95
2019-04-21T00:47:24.226Z,100552.95
2019-04-21T00:49:58.717Z,100559.63
2019-04-21T00:58:05.337Z,100556.00
2019-04-21T01:00:27.832Z,100560.66
2019-04-21T01:03:03.251Z,100539.97
2019-04-21T01:05:37.481Z,100539.97
2019-04-21T01:08:04.917Z,100554.69
2019-04-21T01:10:28.683Z,100561.05
2019-04-21T01:13:11.347Z,100561.54
2019-04-21T01:15:43.589Z,100559.33
2019-04-21T01:18:09.241Z,100559.33
2019-04-21T01:20:23.428Z,100535.41
2019-04-21T01:22:53.687Z,100560.02
2019-04-21T01:25:33.054Z,100555.34
2019-04-21T01:28:16.732Z,100537.40
2019-04-21T01:30:45.128Z,100556.81
2019-04-21T01:33:21.609Z,100561.77
2019-04-21T01:35:48.451Z,100561.38
2019-04-21T01:38:32.702Z,100564.92
2019-04-21T01:40:53.086Z,100572.59
2019-04-21T01:43:23.410Z,100572.59
2019-04-21T01:45:59.527Z,100575.02
2019-04-21T01:48:27.273Z,100575.02
2019-04-21T01:51:02.655Z,100576.72
2019-04-21T01:53:42.513Z,100575.11
2019-04-21T01:56:24.722Z,100575.11
2019-04-21T01:58:48.230Z,100584.19
2019-04-21T02:01:28.365Z,100588.02
2019-04-21T02:04:02.775Z,100585.25
2019-04-21T02:06:33.421Z,100585.39
2019-04-21T02:09:04.905Z,100588.36
2019-04-21T02:11:45.617Z,100589.19
2019-04-21T02:14:12.940Z,100591.81
2019-04-21T02:16:40.443Z,100583.95
2019-04-21T02:19:09.137Z,100583.95
2019-04-21T02:21:41.056Z,100589.08
2019-04-21T02:24:20.896Z,100596.95
2019-04-21T02:26:45.713Z,100596.95
2019-04-21T02:29:25.128Z,100597.29
2019-04-21T02:32:14.802Z,100603.02
2019-04-21T02:37:28.525Z,100603.30
2019-04-21T02:39:46.701Z,100582.63
2019-04-21T02:44:44.795Z,100608.14
2019-04-21T02:47:21.697Z,100608.87
2019-04-21T02:49:56.032Z,100608.81
2019-04-21T02:52:21.990Z,100613.19
2019-04-21T03:00:06.993Z,100617.62
2019-04-21T03:02:48.961Z,100617.62
2019-04-21T03:05:41.658Z,100624.80
2019-04-21T03:15:37.642Z,100640.72
2019-04-21T03:21:00.163Z,100638.82
2019-04-21T03:23:23.799Z,100644.30
2019-04-21T03:28:26.303Z,100642.28
2019-04-21T03:38:31.878Z,100657.50
2019-04-21T03:40:57.363Z,100657.50
2019-04-21T03:43:26.796Z,100653.64
2019-04-21T03:51:04.304Z,100652.88
2019-04-21T03:53:32.013Z,100660.81
2019-04-21T03:56:01.000Z,100660.81
2019-04-21T04:01:24.062Z,100657.92
2019-04-21T04:04:31.840Z,100661.30
2019-04-21T04:09:44.394Z,100661.24
2019-04-21T04:12:13.243Z,100662.44
2019-04-21T04:14:47.544Z,100665.73
2019-04-21T04:19:51.002Z,100671.04
2019-04-21T04:24:57.979Z,100672.06
2019-04-21T04:27:54.022Z,100671.72
2019-04-21T04:30:01.093Z,100670.23
2019-04-21T04:32:28.415Z,100670.70
2019-04-21T04:35:04.018Z,100663.78
2019-04-21T04:40:21.444Z,100668.32
2019-04-21T04:42:56.184Z,100666.92
2019-04-21T04:45:30.717Z,100666.92
2019-04-21T04:50:45.592Z,100665.75
2019-04-21T04:55:41.103Z,100671.75
2019-04-21T04:58:13.174Z,100671.75
2019-04-21T05:03:15.292Z,100677.92
2019-04-21T05:06:37.419Z,100675.91
2019-04-21T05:14:02.221Z,100678.47
2019-04-21T05:16:46.325Z,100683.66
2019-04-21T05:19:10.172Z,100683.66
2019-04-21T05:21:34.686Z,100680.34
2019-04-21T05:23:55.788Z,100683.89
2019-04-21T05:26:23.354Z,100666.52
2019-04-21T05:28:50.840Z,100689.30
2019-04-21T05:32:00.481Z,100697.70
2019-04-21T05:34:22.356Z,100693.05
2019-04-21T05:37:01.342Z,100693.05
2019-04-21T05:39:40.708Z,100694.95
2019-04-21T05:42:09.238Z,100704.31
2019-04-21T05:44:56.351Z,100705.41
2019-04-21T05:47:33.233Z,100707.16
2019-04-21T05:50:02.423Z,100707.16
2019-04-21T05:52:35.362Z,100707.83
2019-04-21T05:55:18.141Z,100709.31
2019-04-21T05:57:52.489Z,100709.31
2019-04-21T06:00:37.532Z,100716.45
2019-04-21T06:02:50.309Z,100718.31
2019-04-21T06:07:58.801Z,100717.58
2019-04-21T06:10:38.533Z,100722.41
2019-04-21T06:13:09.895Z,100722.41
2019-04-21T06:15:36.129Z,100729.89
2019-04-21T06:18:13.456Z,100726.91
2019-04-21T06:20:43.002Z,100724.84
2019-04-21T06:23:16.311Z,100726.27
2019-04-21T06:28:21.048Z,100731.80
2019-04-21T06:33:24.062Z,100731.41
2019-04-21T06:36:24.172Z,100731.41
2019-04-21T06:39:06.164Z,100735.22
2019-04-21T06:41:32.784Z,100739.10
2019-04-21T06:44:07.396Z,100731.33
2019-04-21T06:46:59.360Z,100731.33
2019-04-21T06:51:30.682Z,100741.98
2019-04-21T06:54:10.012Z,100743.53
2019-04-21T06:56:43.896Z,100736.27
2019-04-21T06:59:06.975Z,100740.56
2019-04-21T07:01:44.074Z,100740.56
2019-04-21T07:04:18.499Z,100742.46
2019-04-21T07:06:48.057Z,100742.46
2019-04-21T07:09:20.407Z,100740.98
2019-04-21T07:11:52.056Z,100741.92
2019-04-21T07:14:28.043Z,100740.10
2019-04-21T07:19:34.676Z,100744.52
2019-04-21T07:21:55.527Z,100745.39
2019-04-21T07:24:32.058Z,100741.86
2019-04-21T07:27:02.675Z,100746.02
2019-04-21T07:29:45.332Z,100749.77
2019-04-21T07:32:12.720Z,100747.92
2019-04-21T07:34:45.473Z,100747.92
2019-04-21T07:37:12.673Z,100750.34
2019-04-21T07:39:48.200Z,100743.64
2019-04-21T07:42:13.245Z,100743.94
2019-04-21T07:44:40.860Z,100750.77
2019-04-21T07:47:20.214Z,100742.66
2019-04-21T07:50:17.749Z,100748.73
2019-04-21T07:53:08.441Z,100748.94
2019-04-21T07:58:14.970Z,100746.95
2019-04-21T08:03:15.706Z,100748.16
2019-04-21T08:05:45.777Z,100748.16
2019-04-21T08:08:12.143Z,100747.06
2019-04-21T08:10:47.095Z,100744.05
2019-04-21T08:13:30.074Z,100744.05
2019-04-21T08:15:51.316Z,100747.42
2019-04-21T08:18:28.662Z,100746.66
2019-04-21T08:20:58.506Z,100750.38
2019-04-21T08:26:20.343Z,100749.16
2019-04-21T08:31:09.920Z,100745.10
2019-04-21T08:36:20.765Z,100748.13
2019-04-21T08:38:42.241Z,100728.06
2019-04-21T08:41:12.272Z,100728.06
2019-04-21T08:43:44.593Z,100728.77
2019-04-21T08:46:20.312Z,100743.44
2019-04-21T08:51:28.910Z,100720.70
2019-04-21T08:53:56.770Z,100744.95
2019-04-21T08:56:46.714Z,100749.52
2019-04-21T08:59:36.096Z,100749.71
2019-04-21T09:02:16.506Z,100747.44
2019-04-21T09:04:41.001Z,100742.05
2019-04-21T09:07:20.817Z,100747.31
2019-04-21T09:09:47.749Z,100748.05
2019-04-21T09:12:16.165Z,100728.84
2019-04-21T09:15:04.590Z,100724.09
2019-04-21T09:17:25.818Z,100724.09
2019-04-21T09:20:07.908Z,100746.03
2019-04-21T09:22:37.924Z,100744.98
2019-04-21T09:25:04.383Z,100740.38
2019-04-21T09:27:36.785Z,100740.38
2019-04-21T09:30:00.689Z,100738.10
2019-04-21T09:32:29.134Z,100744.81
2019-04-21T09:34:58.126Z,100743.75
2019-04-21T09:37:40.923Z,100739.38
2019-04-21T09:40:01.323Z,100738.87
2019-04-21T09:42:38.349Z,100731.02
2019-04-21T09:45:05.883Z,100732.64
2019-04-21T09:47:43.864Z,100734.63
2019-04-21T09:50:06.646Z,100730.18
2019-04-21T09:52:45.181Z,100736.16
2019-04-21T09:55:18.908Z,100733.56
2019-04-21T09:57:53.196Z,100737.72
2019-04-21T10:00:22.435Z,100745.56
2019-04-21T10:02:56.724Z,100740.23
2019-04-21T10:05:19.290Z,100731.42
2019-04-21T10:07:50.675Z,100731.42
2019-04-21T10:10:20.561Z,100731.91
2019-04-21T10:12:50.343Z,100731.95
2019-04-21T10:15:23.262Z,100728.77
2019-04-21T10:17:55.994Z,100732.50
2019-04-21T10:20:27.034Z,100733.37
2019-04-21T10:22:57.312Z,100733.16
2019-04-21T10:25:28.270Z,100734.28
2019-04-21T10:27:59.043Z,100733.03
2019-04-21T10:30:29.033Z,100735.48
2019-04-21T10:32:58.867Z,100733.36
2019-04-21T10:35:28.844Z,100729.83
2019-04-21T10:38:10.989Z,100726.25
2019-04-21T10:40:34.015Z,100725.05
2019-04-21T10:43:03.902Z,100728.58
2019-04-21T10:45:34.894Z,100726.61
2019-04-21T10:48:07.214Z,100732.37
2019-04-21T10:50:37.178Z,100721.70
2019-04-21T10:53:31.733Z,100727.95
2019-04-21T10:56:13.558Z,100723.42
2019-04-21T10:58:36.304Z,100721.80
2019-04-21T11:01:27.454Z,100718.72
2019-04-21T11:04:21.832Z,100722.34
2019-04-21T11:06:48.599Z,100716.06
2019-04-21T11:09:19.935Z,100716.00
2019-04-21T11:11:51.666Z,100713.36
2019-04-21T11:14:23.023Z,100717.02
2019-04-21T11:16:53.435Z,100707.21
2019-04-21T11:19:24.656Z,100708.41
2019-04-21T11:21:54.688Z,100704.78
2019-04-21T11:24:25.060Z,100694.59
2019-04-21T11:26:56.404Z,100697.98
2019-04-21T11:29:26.355Z,100693.33
2019-04-21T11:31:59.076Z,100691.77
2019-04-21T11:34:29.371Z,100688.66
2019-04-21T11:36:59.369Z,100687.55
2019-04-21T11:39:39.593Z,100681.27
2019-04-21T11:42:05.886Z,100687.31
2019-04-21T11:44:37.223Z,100688.42
2019-04-21T11:47:10.562Z,100683.07
2019-04-21T11:49:41.398Z,100681.40
2019-04-21T11:52:11.337Z,100674.13
2019-04-21T11:54:42.698Z,100679.59
2019-04-21T11:57:20.535Z,100675.16
2019-04-21T11:59:44.049Z,100680.00
2019-04-21T12:02:13.607Z,100672.59
2019-04-21T12:04:43.571Z,100661.11
2019-04-21T12:07:13.513Z,100664.75
2019-04-21T12:09:43.777Z,100670.92
2019-04-21T12:12:14.978Z,100665.07
2019-04-21T12:14:45.927Z,100657.91
2019-04-21T12:17:16.320Z,100651.84
2019-04-21T12:19:46.272Z,100650.48
2019-04-21T12:22:22.202Z,100651.83
2019-04-21T12:24:49.257Z,100643.32
2019-04-21T12:27:20.370Z,100637.41
2019-04-21T12:29:51.585Z,100640.59
2019-04-21T12:32:50.006Z,100633.84
2019-04-21T12:35:19.797Z,100643.92
2019-04-21T12:37:51.031Z,100644.96
2019-04-21T12:40:21.509Z,100637.23
2019-04-21T12:42:52.508Z,100633.34
2019-04-21T12:45:22.398Z,100636.04
2019-04-21T12:47:52.436Z,100636.59
2019-04-21T12:50:23.647Z,100632.23
2019-04-21T12:52:53.724Z,100635.21
2019-04-21T12:55:30.741Z,100625.41
2019-04-21T12:57:55.424Z,100629.23
2019-04-21T13:00:25.402Z,100637.17
2019-04-21T13:02:56.070Z,100636.27
2019-04-21T13:05:27.447Z,100634.70
2019-04-21T13:08:01.619Z,100627.00
2019-04-21T13:10:31.992Z,100627.13
2019-04-21T13:13:02.017Z,100626.75
2019-04-21T13:15:33.651Z,100622.84
2019-04-21T13:18:04.633Z,100628.12
2019-04-21T13:20:35.969Z,100625.36
2019-04-21T13:23:12.185Z,100630.80
2019-04-21T13:25:48.342Z,100626.12
2019-04-21T13:28:21.175Z,100626.77
2019-04-21T13:30:50.763Z,100632.11
2019-04-21T13:33:21.017Z,100630.34
2019-04-21T13:35:53.115Z,100625.58
2019-04-21T13:38:32.576Z,100626.29
2019-04-21T13:41:31.130Z,100624.48
2019-04-21T13:43:45.523Z,100623.63
2019-04-21T13:46:15.572Z,100626.25
2019-04-21T13:48:46.527Z,100628.46
2019-04-21T13:51:17.555Z,100628.27
2019-04-21T13:53:49.459Z,100629.22
2019-04-21T13:56:20.411Z,100621.02
2019-04-21T13:58:50.559Z,100619.75
2019-04-21T14:01:21.454Z,100619.47
2019-04-21T14:03:51.552Z,100614.04
2019-04-21T14:06:22.565Z,100613.74
2019-04-21T14:08:54.694Z,100612.89
2019-04-21T14:11:25.117Z,100614.10
2019-04-21T14:13:56.431Z,100612.08
2019-04-21T14:16:26.771Z,100610.27
2019-04-21T14:18:57.213Z,100607.19
2019-04-21T14:21:27.286Z,100601.62
2019-04-21T14:23:58.133Z,100602.60
2019-04-21T14:26:32.200Z,100602.20
2019-04-21T14:29:01.662Z,100603.94
2019-04-21T14:31:32.377Z,100594.59
2019-04-21T14:34:01.825Z,100597.13
2019-04-21T14:36:32.445Z,100596.27
2019-04-21T14:39:02.817Z,100602.67
2019-04-21T14:41:35.847Z,100604.64
2019-04-21T14:44:06.887Z,100598.98
2019-04-21T14:47:01.376Z,100602.70
2019-04-21T14:49:39.440Z,100601.23
2019-04-21T14:52:28.791Z,100599.23
2019-04-21T14:55:12.271Z,100593.59
2019-04-21T14:57:43.207Z,100594.86
2019-04-21T15:07:09.671Z,100603.91
2019-04-21T15:09:41.539Z,100606.81
2019-04-21T15:12:11.938Z,100596.45
2019-04-21T15:14:42.254Z,100597.00
2019-04-21T15:17:13.333Z,100605.92
2019-04-21T15:19:53.354Z,100605.22
2019-04-21T15:22:16.460Z,100603.30
2019-04-21T15:24:48.116Z,100601.34
2019-04-21T15:27:18.982Z,100601.39
2019-04-21T15:29:50.971Z,100599.07
2019-04-21T15:32:22.222Z,100605.98
2019-04-21T15:34:52.300Z,100602.70
2019-04-21T15:37:24.023Z,100607.69
2019-04-21T15:39:56.287Z,100605.02
2019-04-21T15:42:26.443Z,100614.11
2019-04-21T15:44:56.843Z,100607.94
2019-04-21T15:47:28.177Z,100608.70
2019-04-21T15:50:04.674Z,100609.08
2019-04-21T15:52:30.020Z,100608.51
2019-04-21T15:55:05.313Z,100614.41
2019-04-21T15:58:02.706Z,100615.86
2019-04-21T16:01:00.733Z,100613.14
2019-04-21T16:03:31.173Z,100617.99
2019-04-21T16:06:01.553Z,100619.84
2019-04-21T16:08:33.266Z,100622.53
2019-04-21T16:11:06.001Z,100625.80
2019-04-21T16:13:34.941Z,100625.27
2019-04-21T16:16:06.265Z,100631.92
2019-04-21T16:18:38.398Z,100626.64
2019-04-21T16:21:11.750Z,100629.07
2019-04-21T16:23:42.499Z,100629.55
2019-04-21T16:26:12.769Z,100633.94
2019-04-21T16:28:42.810Z,100643.33
2019-04-21T16:31:14.128Z,100644.52
2019-04-21T16:33:45.234Z,100643.25
2019-04-21T16:36:16.717Z,100641.09
2019-04-21T16:38:47.320Z,100642.42
2019-04-21T16:41:18.244Z,100629.68
2019-04-21T16:43:49.225Z,100629.68
2019-04-21T16:46:21.137Z,100643.66
2019-04-21T16:48:55.822Z,100642.16
2019-04-21T16:51:26.495Z,100642.16
2019-04-21T16:54:19.901Z,100660.22
2019-04-21T16:56:57.625Z,100659.73
2019-04-21T16:59:34.602Z,100669.93
2019-04-21T17:02:04.966Z,100669.93
2019-04-21T17:04:36.318Z,100646.24
2019-04-21T17:07:07.385Z,100649.55
2019-04-21T17:09:38.845Z,100673.11
2019-04-21T17:12:13.729Z,100678.38
2019-04-21T17:14:55.572Z,100677.20
2019-04-21T17:17:34.748Z,100677.20
2019-04-21T17:19:47.003Z,100678.69
2019-04-21T17:22:15.718Z,100678.60
2019-04-21T17:24:46.512Z,100686.22
2019-04-21T17:27:17.915Z,100683.82
2019-04-21T17:29:48.892Z,100683.82
2019-04-21T17:32:20.434Z,100687.38
2019-04-21T17:34:52.533Z,100687.38
2019-04-21T17:37:25.132Z,100696.80
2019-04-21T17:39:56.494Z,100679.09
2019-04-21T17:42:37.390Z,100679.09
2019-04-21T17:44:59.415Z,100695.92
2019-04-21T17:47:41.592Z,100691.37
2019-04-21T17:50:25.493Z,100699.95
2019-04-21T17:53:06.326Z,100699.95
2019-04-21T17:55:35.588Z,100707.78
2019-04-21T17:58:24.281Z,100708.89
2019-04-21T18:01:10.792Z,100709.84
2019-04-21T18:03:45.480Z,100709.84
2019-04-21T18:05:59.516Z,100713.21
2019-04-21T18:08:40.779Z,100710.43
2019-04-21T18:11:02.333Z,100705.80
2019-04-21T18:13:26.549Z,100720.00
2019-04-21T18:16:11.077Z,100721.10
2019-04-21T18:18:28.755Z,100720.05
2019-04-21T18:21:05.128Z,100724.95
2019-04-21T18:23:50.609Z,100717.27
2019-04-21T18:26:25.980Z,100718.20
2019-04-21T18:28:44.485Z,100719.69
2019-04-21T18:31:16.605Z,100731.58
2019-04-21T18:34:05.035Z,100720.76
2019-04-21T18:36:40.749Z,100728.45
2019-04-21T18:39:33.855Z,100731.73
2019-04-21T18:42:17.132Z,100730.57
2019-04-21T18:45:28.193Z,100732.61
2019-04-21T18:47:57.117Z,100733.09
2019-04-21T18:50:29.385Z,100733.09
2019-04-21T18:53:23.855Z,100737.44
2019-04-21T18:55:46.593Z,100734.95
2019-04-21T18:58:15.279Z,100734.95
2019-04-21T19:00:45.831Z,100741.73
2019-04-21T19:03:26.251Z,100741.12
2019-04-21T19:05:58.283Z,100736.70
2019-04-21T19:08:40.556Z,100735.51
2019-04-21T19:11:14.786Z,100740.55
2019-04-21T19:14:17.477Z,100740.55
2019-04-21T19:16:59.336Z,100742.43
2019-04-21T19:19:38.258Z,100739.48
2019-04-21T19:21:45.219Z,100737.91
2019-04-21T19:26:54.370Z,100740.87
2019-04-21T19:29:23.997Z,100741.87
2019-04-21T19:31:49.729Z,100741.87
2019-04-21T19:34:10.310Z,100743.34
2019-04-21T19:36:45.531Z,100744.03
2019-04-21T19:39:16.357Z,100742.61
2019-04-21T19:41:57.520Z,100744.70
2019-04-21T19:44:33.994Z,100746.58
2019-04-21T19:47:03.864Z,100751.88
2019-04-21T19:49:43.569Z,100745.84
2019-04-21T19:52:03.915Z,100745.84
2019-04-21T19:54:35.855Z,100752.51
2019-04-21T19:57:01.111Z,100749.25
2019-04-21T19:59:38.575Z,100742.34
2019-04-21T20:02:04.607Z,100750.35
2019-04-21T20:04:42.405Z,100750.35
2019-04-21T20:07:23.017Z,100753.05
2019-04-21T20:09:56.769Z,100753.05
2019-04-21T20:12:35.588Z,100762.55
2019-04-21T20:15:04.927Z,100757.02
2019-04-21T20:17:34.777Z,100755.84
2019-04-21T20:19:52.065Z,100764.50
2019-04-21T20:22:32.641Z,100764.50
2019-04-21T20:25:07.751Z,100764.11
2019-04-21T20:27:42.936Z,100763.18
2019-04-21T20:30:25.966Z,100763.18
2019-04-21T20:33:06.018Z,100769.06
2019-04-21T20:35:46.551Z,100765.11
2019-04-21T20:38:08.892Z,100774.85
2019-04-21T20:40:36.327Z,100770.13
2019-04-21T20:43:17.806Z,100777.78
2019-04-21T20:45:55.632Z,100773.51
2019-04-21T20:48:13.989Z,100779.39
2019-04-21T20:50:49.946Z,100779.45
2019-04-21T20:53:24.942Z,100784.79
2019-04-21T20:55:58.443Z,100780.59
2019-04-21T20:58:33.736Z,100782.70
2019-04-21T21:01:33.165Z,100782.70
2019-04-21T21:03:48.896Z,100784.82
2019-04-21T21:06:26.103Z,100793.33
2019-04-21T21:09:06.149Z,100796.41
2019-04-21T21:11:46.168Z,100792.20
2019-04-21T21:14:16.344Z,100797.14
2019-04-21T21:16:53.619Z,100792.94
2019-04-21T21:19:26.741Z,100805.23
2019-04-21T21:21:49.645Z,100801.95
2019-04-21T21:24:34.474Z,100798.18
2019-04-21T21:26:58.043Z,100801.69
2019-04-21T21:29:29.185Z,100803.13
2019-04-21T21:32:08.526Z,100805.05
2019-04-21T21:34:44.006Z,100802.98
2019-04-21T21:37:21.592Z,100807.59
2019-04-21T21:39:53.483Z,100802.00
2019-04-21T21:42:06.112Z,100809.69
2019-04-21T21:44:42.940Z,100808.70
2019-04-21T21:47:27.991Z,100807.83
2019-04-21T21:50:04.439Z,100810.55
2019-04-21T21:52:39.827Z,100805.61
2019-04-21T21:55:09.806Z,100807.97
2019-04-21T21:57:47.576Z,100809.87
2019-04-21T22:00:15.352Z,100809.55
2019-04-21T22:02:51.296Z,100810.16
2019-04-21T22:05:25.429Z,100808.06
2019-04-21T22:07:54.337Z,100812.99
2019-04-21T22:10:29.805Z,100809.55
2019-04-21T22:13:08.244Z,100816.02
2019-04-21T22:15:37.962Z,100811.34
2019-04-21T22:18:31.819Z,100816.83
2019-04-21T22:20:59.098Z,100816.83
2019-04-21T22:23:32.443Z,100810.19
2019-04-21T22:25:47.528Z,100816.05
2019-04-21T22:28:17.978Z,100817.45
2019-04-21T22:30:53.056Z,100818.77
2019-04-21T22:33:44.294Z,100817.09
2019-04-21T22:36:44.851Z,100818.06
2019-04-21T22:39:19.496Z,100816.41
2019-04-21T22:41:43.124Z,100823.09
2019-04-21T22:44:20.526Z,100825.44
2019-04-21T22:47:02.937Z,100827.28
2019-04-21T22:49:30.569Z,100834.30
2019-04-21T22:52:10.365Z,100827.53
2019-04-21T22:54:40.830Z,100830.27
2019-04-21T22:57:17.532Z,100829.30
2019-04-21T22:59:54.961Z,100829.70
2019-04-21T23:02:28.450Z,100829.70
2019-04-21T23:04:58.621Z,100834.14
2019-04-21T23:07:28.292Z,100834.14
2019-04-21T23:09:59.134Z,100832.14
2019-04-21T23:12:36.619Z,100839.44
2019-04-21T23:15:11.786Z,100839.44
2019-04-21T23:17:57.524Z,100838.62
2019-04-21T23:20:29.730Z,100845.87
2019-04-21T23:23:05.059Z,100838.61
2019-04-21T23:25:34.068Z,100840.90
2019-04-21T23:28:06.033Z,100840.90
2019-04-21T23:30:44.831Z,100841.47
2019-04-21T23:32:59.725Z,100848.82
2019-04-21T23:35:35.307Z,100838.60
2019-04-21T23:38:05.019Z,100843.21
2019-04-21T23:40:33.005Z,100843.36
2019-04-21T23:43:09.299Z,100842.14
2019-04-21T23:45:41.182Z,100842.28
2019-04-21T23:48:23.521Z,100842.78
2019-04-21T23:50:49.084Z,100843.79
2019-04-21T23:53:13.193Z,100843.44
2019-04-21T23:55:43.425Z,100844.75
2019-04-21T23:58:21.653Z,100854.76
